createdAt,value
2022-09-22T00:01:29.560Z,2.72
2022-09-22T00:04:34.122Z,2.80
2022-09-22T00:07:38.435Z,2.83
2022-09-22T00:10:41.837Z,2.50
2022-09-22T00:13:47.777Z,2.83
2022-09-22T00:16:54.025Z,2.67
2022-09-22T00:19:58.779Z,2.67
2022-09-22T00:23:01.855Z,2.63
2022-09-22T00:26:12.558Z,2.78
2022-09-22T00:29:17.183Z,2.50
2022-09-22T00:32:20.570Z,2.60
2022-09-22T00:35:25.127Z,2.90
2022-09-22T00:38:29.419Z,2.90
2022-09-22T00:44:44.789Z,2.47
2022-09-22T00:47:48.614Z,2.63
2022-09-22T00:50:57.293Z,3.20
2022-09-22T00:54:07.108Z,2.92
2022-09-22T00:57:17.239Z,2.72
2022-09-22T01:00:21.525Z,2.45
2022-09-22T01:03:29.826Z,2.53
2022-09-22T01:06:39.477Z,2.45
2022-09-22T01:09:42.816Z,2.38
2022-09-22T01:12:56.783Z,2.70
2022-09-22T01:16:21.779Z,2.10
2022-09-22T01:20:11.486Z,2.15
2022-09-22T01:24:03.176Z,1.90
2022-09-22T01:27:44.526Z,1.70
2022-09-22T01:30:53.839Z,2.22
2022-09-22T01:34:08.885Z,2.10
2022-09-22T01:37:22.408Z,2.17
2022-09-22T01:40:35.514Z,2.37
2022-09-22T01:43:53.097Z,2.35
2022-09-22T01:47:05.713Z,2.30
2022-09-22T01:50:17.575Z,2.10
2022-09-22T01:53:27.218Z,3.08
2022-09-22T01:56:35.812Z,2.70
2022-09-22T01:59:47.826Z,3.25
2022-09-22T02:02:59.412Z,2.72
2022-09-22T02:06:11.510Z,2.67
2022-09-22T02:09:20.621Z,2.30
2022-09-22T02:12:23.744Z,2.22
2022-09-22T02:15:40.818Z,2.45
2022-09-22T02:18:52.198Z,2.40
2022-09-22T02:21:55.895Z,2.60
2022-09-22T02:24:59.416Z,2.30
2022-09-22T02:28:04.095Z,2.40
2022-09-22T02:31:20.155Z,1.90
2022-09-22T02:34:25.616Z,1.70
2022-09-22T02:37:39.429Z,1.90
2022-09-22T02:40:53.368Z,1.95
2022-09-22T02:44:05.817Z,1.95
2022-09-22T02:47:15.545Z,2.03
2022-09-22T02:50:24.202Z,1.67
2022-09-22T02:53:27.407Z,1.98
2022-09-22T02:56:30.843Z,1.77
2022-09-22T02:59:35.473Z,2.07
2022-09-22T03:02:38.604Z,1.92
2022-09-22T03:05:43.193Z,1.75
2022-09-22T03:08:46.591Z,1.90
2022-09-22T03:11:49.822Z,1.70
2022-09-22T03:14:53.062Z,1.70
2022-09-22T03:17:56.188Z,1.90
2022-09-22T03:21:00.843Z,1.98
2022-09-22T03:24:04.948Z,1.88
2022-09-22T03:27:08.712Z,1.67
2022-09-22T03:30:13.749Z,1.90
2022-09-22T03:33:16.913Z,2.00
2022-09-22T03:36:21.862Z,2.22
2022-09-22T03:39:25.088Z,2.15
2022-09-22T03:42:28.537Z,1.85
2022-09-22T03:45:31.774Z,1.80
2022-09-22T03:48:34.980Z,1.57
2022-09-22T03:51:39.776Z,1.85
2022-09-22T03:54:44.479Z,1.55
2022-09-22T03:57:48.557Z,1.98
2022-09-22T04:00:51.853Z,2.15
2022-09-22T04:03:55.366Z,1.93
2022-09-22T04:07:06.730Z,2.10
2022-09-22T04:10:10.778Z,1.80
2022-09-22T04:13:14.833Z,1.90
2022-09-22T04:16:19.079Z,1.92
2022-09-22T04:22:29.547Z,1.65
2022-09-22T04:25:32.949Z,1.63
2022-09-22T04:28:36.064Z,1.67
2022-09-22T04:31:39.133Z,1.70
2022-09-22T04:34:43.198Z,1.85
2022-09-22T04:37:47.793Z,1.90
2022-09-22T04:40:53.828Z,1.60
2022-09-22T04:44:02.760Z,1.30
2022-09-22T04:47:07.005Z,1.60
2022-09-22T04:50:18.038Z,1.48
2022-09-22T04:53:29.152Z,1.30
2022-09-22T04:56:36.156Z,1.67
2022-09-22T04:59:43.422Z,3.40
2022-09-22T05:02:47.397Z,3.50
2022-09-22T05:05:51.820Z,4.20
2022-09-22T05:08:57.101Z,5.68
2022-09-22T05:12:03.657Z,6.22
2022-09-22T05:15:11.853Z,5.57
2022-09-22T05:18:16.904Z,4.22
2022-09-22T05:21:20.439Z,2.60
2022-09-22T05:24:26.993Z,1.73
2022-09-22T05:27:30.478Z,2.63
2022-09-22T05:30:34.289Z,1.90
2022-09-22T05:33:37.479Z,1.67
2022-09-22T05:36:40.798Z,2.15
2022-09-22T05:39:45.520Z,1.77
2022-09-22T05:42:51.713Z,1.80
2022-09-22T05:45:54.869Z,1.58
2022-09-22T05:48:57.913Z,1.80
2022-09-22T05:52:01.046Z,1.80
2022-09-22T05:55:07.077Z,1.70
2022-09-22T05:58:12.901Z,1.90
2022-09-22T06:01:16.558Z,1.40
2022-09-22T06:04:20.689Z,1.45
2022-09-22T06:10:29.703Z,1.55
2022-09-22T06:13:33.337Z,1.20
2022-09-22T06:16:36.667Z,1.10
2022-09-22T06:19:40.716Z,1.00
2022-09-22T06:22:44.950Z,1.38
2022-09-22T06:25:49.521Z,1.08
2022-09-22T06:28:52.656Z,1.17
2022-09-22T06:31:56.220Z,1.20
2022-09-22T06:35:02.427Z,0.77
2022-09-22T06:38:07.079Z,0.85
2022-09-22T06:41:11.582Z,0.70
2022-09-22T06:44:15.351Z,0.70
2022-09-22T06:47:19.258Z,1.00
2022-09-22T06:50:22.639Z,0.80
2022-09-22T06:53:27.484Z,0.80
2022-09-22T06:56:37.165Z,0.60
2022-09-22T06:59:41.273Z,0.52
2022-09-22T07:05:55.097Z,0.50
2022-09-22T07:08:58.826Z,0.55
2022-09-22T07:12:03.766Z,0.57
2022-09-22T07:15:08.249Z,0.80
2022-09-22T07:18:11.494Z,0.77
2022-09-22T07:21:19.042Z,0.83
2022-09-22T07:24:22.237Z,0.88
2022-09-22T07:27:26.688Z,0.90
2022-09-22T07:30:30.134Z,0.70
2022-09-22T07:33:34.521Z,1.02
2022-09-22T07:36:37.974Z,1.38
2022-09-22T07:39:41.094Z,1.67
2022-09-22T07:42:49.703Z,1.20
2022-09-22T07:45:55.589Z,1.30
2022-09-22T07:48:59.216Z,0.80
2022-09-22T07:52:02.504Z,0.80
2022-09-22T07:55:06.875Z,0.60
2022-09-22T07:58:16.599Z,0.63
2022-09-22T08:01:22.801Z,0.60
2022-09-22T08:04:26.507Z,0.70
2022-09-22T08:07:31.666Z,0.70
2022-09-22T08:10:35.733Z,0.50
2022-09-22T08:13:41.525Z,0.57
2022-09-22T08:16:46.834Z,0.70
2022-09-22T08:19:50.933Z,0.65
2022-09-22T08:25:58.478Z,0.50
2022-09-22T08:29:04.923Z,0.52
2022-09-22T08:32:08.261Z,0.40
2022-09-22T08:35:12.177Z,0.27
2022-09-22T08:38:15.459Z,0.30
2022-09-22T08:41:35.580Z,0.20
2022-09-22T08:44:50.503Z,0.30
2022-09-22T08:48:19.267Z,0.30
2022-09-22T08:51:48.287Z,0.40
2022-09-22T08:54:51.445Z,0.30
2022-09-22T08:58:07.390Z,0.10
2022-09-22T09:01:29.532Z,0.25
2022-09-22T09:05:00.370Z,0.30
2022-09-22T09:08:24.521Z,0.40
2022-09-22T09:12:15.713Z,0.45
2022-09-22T09:15:43.644Z,0.50
2022-09-22T09:19:00.714Z,0.55
2022-09-22T09:22:17.896Z,0.30
2022-09-22T09:25:31.135Z,0.43
2022-09-22T09:28:40.089Z,0.38
2022-09-22T09:31:49.714Z,0.50
2022-09-22T09:34:55.960Z,0.45
2022-09-22T09:38:02.568Z,0.50
2022-09-22T09:41:15.291Z,0.40
2022-09-22T09:44:29.338Z,0.30
2022-09-22T09:47:59.484Z,0.50
2022-09-22T09:51:06.718Z,0.57
2022-09-22T09:54:17.008Z,0.50
2022-09-22T09:57:27.447Z,0.45
2022-09-22T10:00:31.730Z,0.43
2022-09-22T10:03:37.566Z,0.38
2022-09-22T10:06:42.126Z,0.47
2022-09-22T10:09:48.620Z,0.40
2022-09-22T10:12:51.680Z,0.40
2022-09-22T10:16:21.786Z,0.40
2022-09-22T10:19:30.559Z,0.30
2022-09-22T10:22:39.151Z,0.35
2022-09-22T10:25:43.045Z,0.30
2022-09-22T10:28:50.703Z,0.20
2022-09-22T10:32:14.923Z,0.50
2022-09-22T10:35:29.640Z,0.60
2022-09-22T10:41:44.566Z,0.50
2022-09-22T10:44:49.024Z,0.55
2022-09-22T10:47:58.897Z,0.50
2022-09-22T10:51:14.226Z,0.50
2022-09-22T10:54:41.774Z,0.50
2022-09-22T10:58:26.652Z,0.45
2022-09-22T11:01:52.760Z,0.40
2022-09-22T11:05:43.088Z,0.30
2022-09-22T11:09:17.305Z,0.25
2022-09-22T11:12:44.557Z,0.20
2022-09-22T11:16:28.228Z,0.20
2022-09-22T11:20:17.159Z,0.20
2022-09-22T11:23:52.465Z,0.20
2022-09-22T11:26:58.473Z,0.28
2022-09-22T11:30:20.479Z,0.43
2022-09-22T11:33:59.435Z,0.17
2022-09-22T11:37:26.754Z,0.20
2022-09-22T11:40:52.197Z,0.25
2022-09-22T11:44:24.198Z,0.20
2022-09-22T11:48:03.669Z,0.20
2022-09-22T11:51:41.542Z,0.20
2022-09-22T11:55:15.017Z,0.20
2022-09-22T11:58:25.408Z,0.10
2022-09-22T12:01:38.940Z,0.10
2022-09-22T12:04:49.803Z,0.20
2022-09-22T12:08:02.482Z,0.10
2022-09-22T12:11:13.553Z,0.20
2022-09-22T12:14:17.370Z,0.20
2022-09-22T12:17:28.506Z,0.20
2022-09-22T12:20:48.967Z,0.20
2022-09-22T12:23:53.005Z,0.30
2022-09-22T12:30:02.941Z,0.30
2022-09-22T12:33:06.186Z,0.25
2022-09-22T12:36:12.787Z,0.30
2022-09-22T12:39:19.417Z,0.50
2022-09-22T12:42:29.484Z,0.22
2022-09-22T12:45:37.027Z,0.30
2022-09-22T12:48:41.781Z,0.28
2022-09-22T12:51:46.609Z,0.30
2022-09-22T12:54:52.367Z,0.20
2022-09-22T12:57:57.397Z,0.40
2022-09-22T13:01:33.608Z,0.38
2022-09-22T13:04:36.800Z,0.20
2022-09-22T13:07:42.896Z,0.38
2022-09-22T13:10:59.551Z,0.95
2022-09-22T13:14:02.611Z,0.40
2022-09-22T13:17:43.888Z,0.30
2022-09-22T13:20:47.198Z,0.32
2022-09-22T13:24:00.847Z,0.57
2022-09-22T13:27:07.362Z,0.60
2022-09-22T13:30:15.202Z,0.25
2022-09-22T13:33:25.262Z,0.38
2022-09-22T13:36:29.907Z,0.57
2022-09-22T13:39:44.778Z,0.20
2022-09-22T13:42:50.224Z,0.30
2022-09-22T13:45:54.898Z,0.30
2022-09-22T13:49:00.398Z,0.47
2022-09-22T13:52:08.449Z,0.43
2022-09-22T13:55:22.761Z,0.40
2022-09-22T14:01:34.085Z,0.30
2022-09-22T14:04:37.940Z,0.40
2022-09-22T14:08:01.029Z,0.30
2022-09-22T14:11:12.426Z,0.55
2022-09-22T14:14:24.707Z,0.40
2022-09-22T14:17:31.482Z,0.50
2022-09-22T14:20:40.407Z,0.50
2022-09-22T14:23:48.054Z,0.60
2022-09-22T14:27:00.247Z,0.28
2022-09-22T14:30:16.515Z,0.60
2022-09-22T14:33:25.488Z,0.50
2022-09-22T14:36:31.454Z,0.80
2022-09-22T14:39:35.500Z,0.60
2022-09-22T14:45:58.565Z,0.38
2022-09-22T14:49:36.275Z,0.45
2022-09-22T14:52:46.591Z,0.30
2022-09-22T14:55:54.569Z,0.52
2022-09-22T14:59:25.145Z,0.32
2022-09-22T15:02:34.111Z,0.10
2022-09-22T15:05:39.284Z,0.38
2022-09-22T15:08:51.247Z,0.50
2022-09-22T15:11:59.047Z,0.57
2022-09-22T15:15:03.773Z,0.47
2022-09-22T15:18:19.151Z,0.30
2022-09-22T15:21:29.100Z,0.57
2022-09-22T15:24:32.399Z,0.30
2022-09-22T15:27:40.714Z,0.87
2022-09-22T15:30:47.592Z,0.32
2022-09-22T15:33:50.651Z,0.30
2022-09-22T15:36:56.939Z,0.68
2022-09-22T15:40:00.592Z,0.35
2022-09-22T15:43:12.637Z,0.43
2022-09-22T15:46:29.221Z,0.90
2022-09-22T15:49:36.451Z,1.40
2022-09-22T15:52:39.787Z,2.75
2022-09-22T15:55:43.418Z,1.97
2022-09-22T15:58:50.972Z,2.38
2022-09-22T16:01:57.141Z,2.20
2022-09-22T16:05:00.393Z,1.55
2022-09-22T16:08:04.724Z,1.00
2022-09-22T16:11:08.016Z,0.90
2022-09-22T16:14:11.626Z,0.90
2022-09-22T16:17:16.176Z,1.00
2022-09-22T16:20:19.598Z,1.23
2022-09-22T16:23:22.601Z,1.13
2022-09-22T16:26:28.094Z,1.80
2022-09-22T16:29:31.280Z,1.50
2022-09-22T16:32:36.345Z,1.58
2022-09-22T16:35:39.567Z,1.55
2022-09-22T16:38:42.601Z,1.33
2022-09-22T16:41:47.543Z,1.60
2022-09-22T16:44:50.641Z,1.33
2022-09-22T16:47:55.248Z,1.20
2022-09-22T16:50:58.201Z,1.42
2022-09-22T16:54:02.358Z,1.75
2022-09-22T17:00:12.019Z,1.50
2022-09-22T17:03:18.732Z,1.90
2022-09-22T17:06:24.409Z,2.13
2022-09-22T17:09:27.975Z,1.80
2022-09-22T17:12:31.559Z,1.75
2022-09-22T17:15:36.170Z,1.33
2022-09-22T17:18:41.838Z,1.17
2022-09-22T17:21:46.369Z,1.00
2022-09-22T17:24:49.588Z,1.13
2022-09-22T17:27:53.660Z,1.00
2022-09-22T17:30:58.758Z,0.90
2022-09-22T17:34:04.063Z,0.95
2022-09-22T17:37:07.075Z,0.50
2022-09-22T17:40:11.766Z,1.10
2022-09-22T17:43:15.266Z,0.73
2022-09-22T17:46:18.960Z,0.93
2022-09-22T17:49:41.107Z,0.70
2022-09-22T17:53:03.348Z,0.60
2022-09-22T17:56:10.394Z,0.95
2022-09-22T17:59:15.808Z,1.02
2022-09-22T18:02:24.041Z,1.07
2022-09-22T18:05:41.136Z,1.40
2022-09-22T18:08:45.418Z,1.10
2022-09-22T18:11:48.987Z,1.60
2022-09-22T18:14:55.441Z,1.88
2022-09-22T18:17:58.907Z,1.80
2022-09-22T18:21:07.113Z,1.65
2022-09-22T18:24:12.070Z,1.35
2022-09-22T18:27:15.272Z,1.07
2022-09-22T18:30:19.846Z,1.40
2022-09-22T18:33:24.130Z,0.95
2022-09-22T18:36:28.711Z,1.10
2022-09-22T18:39:32.759Z,1.20
2022-09-22T18:42:36.598Z,1.00
2022-09-22T18:45:39.617Z,0.80
2022-09-22T18:48:42.719Z,1.00
2022-09-22T18:51:49.457Z,1.20
2022-09-22T18:54:54.558Z,1.30
2022-09-22T18:57:57.620Z,1.35
2022-09-22T19:01:00.904Z,1.13
2022-09-22T19:04:06.273Z,1.27
2022-09-22T19:07:29.034Z,1.70
2022-09-22T19:10:32.553Z,1.55
2022-09-22T19:13:35.742Z,2.33
2022-09-22T19:16:42.228Z,2.00
2022-09-22T19:19:46.626Z,2.05
2022-09-22T19:22:52.417Z,1.80
2022-09-22T19:25:55.843Z,1.80
2022-09-22T19:28:59.321Z,1.90
2022-09-22T19:32:04.424Z,1.40
2022-09-22T19:35:09.427Z,1.55
2022-09-22T19:38:14.302Z,1.55
2022-09-22T19:41:17.606Z,1.25
2022-09-22T19:44:23.507Z,1.63
2022-09-22T19:47:26.632Z,1.25
2022-09-22T19:50:29.947Z,1.30
2022-09-22T19:53:36.512Z,1.47
2022-09-22T19:56:39.762Z,1.50
2022-09-22T19:59:42.883Z,1.48
2022-09-22T20:02:46.513Z,1.30
2022-09-22T20:05:49.668Z,1.35
2022-09-22T20:09:02.645Z,1.30
2022-09-22T20:12:07.034Z,1.23
2022-09-22T20:15:14.811Z,1.30
2022-09-22T20:18:21.517Z,1.15
2022-09-22T20:21:28.266Z,1.20
2022-09-22T20:24:33.608Z,1.30
2022-09-22T20:27:38.167Z,1.20
2022-09-22T20:33:46.384Z,0.90
2022-09-22T20:36:49.886Z,1.10
2022-09-22T20:39:57.379Z,1.47
2022-09-22T20:43:01.674Z,1.27
2022-09-22T20:46:05.152Z,1.20
2022-09-22T20:49:08.705Z,1.00
2022-09-22T20:52:16.429Z,1.33
2022-09-22T20:55:21.961Z,1.00
2022-09-22T20:58:25.383Z,1.20
2022-09-22T21:01:28.754Z,1.13
2022-09-22T21:04:32.547Z,1.43
2022-09-22T21:07:35.806Z,1.10
2022-09-22T21:10:39.425Z,1.10
2022-09-22T21:13:43.377Z,1.23
2022-09-22T21:16:50.275Z,0.75
2022-09-22T21:19:53.564Z,1.20
2022-09-22T21:22:56.873Z,1.10
2022-09-22T21:26:05.700Z,1.20
2022-09-22T21:29:10.217Z,0.93
2022-09-22T21:32:13.926Z,1.00
2022-09-22T21:35:18.460Z,0.93
2022-09-22T21:38:22.503Z,0.95
2022-09-22T21:41:29.703Z,1.10
2022-09-22T21:44:33.008Z,0.70
2022-09-22T21:47:36.120Z,0.83
2022-09-22T21:50:39.681Z,1.02
2022-09-22T21:53:44.476Z,1.10
2022-09-22T21:56:50.447Z,0.90
2022-09-22T21:59:56.599Z,0.80
2022-09-22T22:03:23.830Z,0.80
2022-09-22T22:06:35.773Z,1.27
2022-09-22T22:09:38.888Z,1.00
2022-09-22T22:12:49.796Z,0.93
2022-09-22T22:16:05.799Z,1.20
2022-09-22T22:19:11.801Z,1.13
2022-09-22T22:22:21.705Z,0.80
2022-09-22T22:25:24.829Z,0.90
2022-09-22T22:28:36.710Z,0.80
2022-09-22T22:31:47.731Z,0.95
2022-09-22T22:34:51.206Z,0.70
2022-09-22T22:38:01.714Z,0.93
2022-09-22T22:41:07.421Z,1.10
2022-09-22T22:44:19.712Z,1.20
2022-09-22T22:47:29.706Z,0.80
2022-09-22T22:50:32.706Z,0.80
2022-09-22T22:53:49.799Z,0.90
2022-09-22T22:56:52.854Z,1.20
2022-09-22T23:00:04.721Z,1.30
2022-09-22T23:03:15.694Z,1.20
2022-09-22T23:06:28.680Z,1.08
2022-09-22T23:09:38.685Z,1.33
2022-09-22T23:12:48.675Z,1.30
2022-09-22T23:15:59.828Z,1.40
2022-09-22T23:19:14.666Z,1.30
2022-09-22T23:22:23.703Z,1.70
2022-09-22T23:25:26.704Z,1.33
2022-09-22T23:28:38.716Z,1.40
2022-09-22T23:31:49.740Z,1.30
2022-09-22T23:34:52.960Z,1.60
2022-09-22T23:38:03.669Z,2.00
2022-09-22T23:41:15.682Z,1.50
2022-09-22T23:44:25.718Z,1.33
2022-09-22T23:47:37.727Z,1.42
2022-09-22T23:50:40.845Z,1.65
2022-09-22T23:53:50.673Z,1.90
2022-09-22T23:57:00.684Z,2.13
